Portada
METAR-TAF:

METAR-TAF

Aeroports :

Kupang, Indonèsia

latitud: 10-10-17S, longitud: 123-40-16E, altitud: 102 m

Observació

L'informe es va fer fa 16 minuts, a les 14:30 UTC
Vent 6 kt del Est/Sud-Est
Temperatura 23°C
Humitat 83%
Pressió 1012 hPa
Visibilitat: 8000 m
Escasses núvols a una alçada de 2000 ft

METAR: WATT 161430Z 11006KT 8000 FEW020 23/20 Q1012 NOSIG

Hora: 21:46 (14:46 UTC)

Pronòstic

L'informe es va fer fa 3 hores i 46 minuts, a les 11:00 UTC
Pronòstic vàlid del 16 a les 12 UTC al 17 a les 12 UTC
Vent 6 kt del Sud-Est
Visibilitat: 8000 m
Escasses núvols a una alçada de 2000 ft
Evolucionant progressivament
l' 17 a les 02 UTC al 17 a les 04 UTC
Vent 10 kt del Est/Sud-Est

TAF: WATT 161100Z 1612/1712 14006KT 8000 FEW020 BECMG 1702/1704 11010KT

Observacions i pronòstics meteorològics de més de 4000 aeroports (METAR i TAF).

Les estacions disponibles són els punts grocs i vermells al mapa.

Posi el ratolí al punt desitjat per veure el nom de l'estació.

Feu clic per veure les observacions i els pronòstics meteorològics.

Per canviar el mapa: feu clic els botons verds amb una creu de color negre per apropar; al botó verd amb un guió per allunyar la imatge; o en les fletxes verdes per a mapes adjacents.


METAR-TAF: